sensor_id;sensor_type;location;lat;lon;timestamp;pressure;altitude;pressure_sealevel;temperature;humidity
49645;BME280;36494;50.730;-1.932;2023-08-21T00:00:25;101880.88;;;17.29;100.00
49645;BME280;36494;50.730;-1.932;2023-08-21T00:02:51;101876.57;;;17.31;100.00
49645;BME280;36494;50.730;-1.932;2023-08-21T00:05:16;101877.70;;;17.25;100.00
49645;BME280;36494;50.730;-1.932;2023-08-21T00:07:41;101873.15;;;17.29;100.00
49645;BME280;36494;50.730;-1.932;2023-08-21T00:10:08;101871.04;;;17.32;100.00
49645;BME280;36494;50.730;-1.932;2023-08-21T00:12:33;101869.87;;;17.27;100.00
49645;BME280;36494;50.730;-1.932;2023-08-21T00:14:58;101872.49;;;17.12;100.00
49645;BME280;36494;50.730;-1.932;2023-08-21T00:17:23;101873.27;;;17.07;100.00
49645;BME280;36494;50.730;-1.932;2023-08-21T00:19:49;101870.43;;;17.06;100.00
49645;BME280;36494;50.730;-1.932;2023-08-21T00:22:14;101869.26;;;17.09;100.00
49645;BME280;36494;50.730;-1.932;2023-08-21T00:24:39;101865.43;;;17.07;100.00
49645;BME280;36494;50.730;-1.932;2023-08-21T00:27:05;101862.62;;;17.05;100.00
49645;BME280;36494;50.730;-1.932;2023-08-21T00:29:30;101864.00;;;17.01;100.00
49645;BME280;36494;50.730;-1.932;2023-08-21T00:31:55;101865.91;;;17.05;100.00
49645;BME280;36494;50.730;-1.932;2023-08-21T00:34:21;101866.16;;;17.03;100.00
49645;BME280;36494;50.730;-1.932;2023-08-21T00:36:46;101864.13;;;17.08;100.00
49645;BME280;36494;50.730;-1.932;2023-08-21T00:39:11;101866.79;;;17.12;100.00
49645;BME280;36494;50.730;-1.932;2023-08-21T00:41:37;101868.27;;;17.12;100.00
49645;BME280;36494;50.730;-1.932;2023-08-21T00:44:02;101866.00;;;17.11;100.00
49645;BME280;36494;50.730;-1.932;2023-08-21T00:46:27;101866.42;;;17.11;100.00
49645;BME280;36494;50.730;-1.932;2023-08-21T00:48:52;101866.71;;;17.06;100.00
49645;BME280;36494;50.730;-1.932;2023-08-21T00:51:18;101868.89;;;17.12;100.00
49645;BME280;36494;50.730;-1.932;2023-08-21T00:53:44;101869.24;;;17.17;100.00
49645;BME280;36494;50.730;-1.932;2023-08-21T00:56:09;101866.01;;;17.19;100.00
49645;BME280;36494;50.730;-1.932;2023-08-21T00:58:34;101868.53;;;17.16;100.00
49645;BME280;36494;50.730;-1.932;2023-08-21T01:00:59;101869.29;;;17.21;100.00
49645;BME280;36494;50.730;-1.932;2023-08-21T01:03:25;101867.71;;;17.21;100.00
49645;BME280;36494;50.730;-1.932;2023-08-21T01:05:50;101862.75;;;17.24;100.00
49645;BME280;36494;50.730;-1.932;2023-08-21T01:08:21;101862.36;;;17.22;100.00
49645;BME280;36494;50.730;-1.932;2023-08-21T01:10:47;101862.31;;;17.19;100.00
49645;BME280;36494;50.730;-1.932;2023-08-21T01:13:15;101863.95;;;17.24;100.00
49645;BME280;36494;50.730;-1.932;2023-08-21T01:15:32;101864.87;;;17.23;100.00
49645;BME280;36494;50.730;-1.932;2023-08-21T01:17:59;101865.70;;;17.23;100.00
49645;BME280;36494;50.730;-1.932;2023-08-21T01:20:23;101866.34;;;17.25;100.00
49645;BME280;36494;50.730;-1.932;2023-08-21T01:22:48;101866.97;;;17.24;100.00
49645;BME280;36494;50.730;-1.932;2023-08-21T01:25:13;101867.22;;;17.28;100.00
49645;BME280;36494;50.730;-1.932;2023-08-21T01:27:43;101867.16;;;17.28;100.00
49645;BME280;36494;50.730;-1.932;2023-08-21T01:30:06;101862.99;;;17.27;100.00
49645;BME280;36494;50.730;-1.932;2023-08-21T01:32:41;101863.84;;;17.26;100.00
49645;BME280;36494;50.730;-1.932;2023-08-21T01:34:55;101863.39;;;17.28;100.00
49645;BME280;36494;50.730;-1.932;2023-08-21T01:37:21;101861.30;;;17.25;100.00
49645;BME280;36494;50.730;-1.932;2023-08-21T01:39:46;101856.58;;;17.27;100.00
49645;BME280;36494;50.730;-1.932;2023-08-21T01:42:11;101853.65;;;17.28;100.00
49645;BME280;36494;50.730;-1.932;2023-08-21T01:44:37;101853.97;;;17.29;100.00
49645;BME280;36494;50.730;-1.932;2023-08-21T01:47:03;101851.12;;;17.20;100.00
49645;BME280;36494;50.730;-1.932;2023-08-21T01:49:28;101846.11;;;17.16;100.00
49645;BME280;36494;50.730;-1.932;2023-08-21T01:51:53;101844.87;;;17.18;100.00
49645;BME280;36494;50.730;-1.932;2023-08-21T01:54:18;101843.55;;;17.20;100.00
49645;BME280;36494;50.730;-1.932;2023-08-21T01:56:43;101848.26;;;17.21;100.00
49645;BME280;36494;50.730;-1.932;2023-08-21T01:59:09;101847.92;;;17.23;100.00
49645;BME280;36494;50.730;-1.932;2023-08-21T02:01:34;101848.31;;;17.24;100.00
49645;BME280;36494;50.730;-1.932;2023-08-21T02:03:59;101849.01;;;17.21;100.00
49645;BME280;36494;50.730;-1.932;2023-08-21T02:06:25;101848.53;;;17.24;100.00
49645;BME280;36494;50.730;-1.932;2023-08-21T02:08:50;101855.10;;;17.26;100.00
49645;BME280;36494;50.730;-1.932;2023-08-21T02:11:16;101860.52;;;17.29;100.00
49645;BME280;36494;50.730;-1.932;2023-08-21T02:13:42;101863.08;;;17.28;100.00
49645;BME280;36494;50.730;-1.932;2023-08-21T02:16:07;101868.14;;;17.27;100.00
49645;BME280;36494;50.730;-1.932;2023-08-21T02:18:33;101868.39;;;17.29;100.00
49645;BME280;36494;50.730;-1.932;2023-08-21T02:21:00;101870.39;;;17.30;100.00
49645;BME280;36494;50.730;-1.932;2023-08-21T02:23:23;101875.44;;;17.32;100.00
49645;BME280;36494;50.730;-1.932;2023-08-21T02:25:48;101875.16;;;17.31;100.00
49645;BME280;36494;50.730;-1.932;2023-08-21T02:28:14;101875.25;;;17.28;100.00
49645;BME280;36494;50.730;-1.932;2023-08-21T02:30:40;101875.29;;;17.30;100.00
49645;BME280;36494;50.730;-1.932;2023-08-21T02:33:04;101870.73;;;17.32;100.00
49645;BME280;36494;50.730;-1.932;2023-08-21T02:35:29;101871.73;;;17.34;100.00
49645;BME280;36494;50.730;-1.932;2023-08-21T02:37:55;101868.60;;;17.32;100.00
49645;BME280;36494;50.730;-1.932;2023-08-21T02:40:21;101863.82;;;17.27;100.00
49645;BME280;36494;50.730;-1.932;2023-08-21T02:42:46;101867.56;;;17.29;100.00
49645;BME280;36494;50.730;-1.932;2023-08-21T02:45:11;101867.12;;;17.24;100.00
49645;BME280;36494;50.730;-1.932;2023-08-21T02:47:37;101869.94;;;17.23;100.00
49645;BME280;36494;50.730;-1.932;2023-08-21T02:50:02;101870.60;;;17.25;100.00
49645;BME280;36494;50.730;-1.932;2023-08-21T02:52:27;101868.42;;;17.25;100.00
49645;BME280;36494;50.730;-1.932;2023-08-21T02:54:53;101871.44;;;17.20;100.00
49645;BME280;36494;50.730;-1.932;2023-08-21T02:57:18;101870.34;;;17.27;100.00
49645;BME280;36494;50.730;-1.932;2023-08-21T02:59:43;101870.90;;;17.27;100.00
49645;BME280;36494;50.730;-1.932;2023-08-21T03:02:08;101871.12;;;17.29;100.00
49645;BME280;36494;50.730;-1.932;2023-08-21T03:04:34;101873.67;;;17.26;100.00
49645;BME280;36494;50.730;-1.932;2023-08-21T03:06:59;101877.83;;;17.29;100.00
49645;BME280;36494;50.730;-1.932;2023-08-21T03:09:25;101880.02;;;17.29;100.00
49645;BME280;36494;50.730;-1.932;2023-08-21T03:11:50;101876.52;;;17.29;100.00
49645;BME280;36494;50.730;-1.932;2023-08-21T03:14:15;101880.04;;;17.30;100.00
49645;BME280;36494;50.730;-1.932;2023-08-21T03:16:40;101884.22;;;17.30;100.00
49645;BME280;36494;50.730;-1.932;2023-08-21T03:19:05;101884.09;;;17.32;100.00
49645;BME280;36494;50.730;-1.932;2023-08-21T03:21:31;101886.73;;;17.32;100.00
49645;BME280;36494;50.730;-1.932;2023-08-21T03:23:58;101882.70;;;17.33;100.00
49645;BME280;36494;50.730;-1.932;2023-08-21T03:26:22;101885.66;;;17.34;100.00
49645;BME280;36494;50.730;-1.932;2023-08-21T03:28:47;101883.70;;;17.31;100.00
49645;BME280;36494;50.730;-1.932;2023-08-21T03:31:12;101876.79;;;17.34;100.00
49645;BME280;36494;50.730;-1.932;2023-08-21T03:33:37;101877.02;;;17.32;100.00
49645;BME280;36494;50.730;-1.932;2023-08-21T03:36:03;101878.63;;;17.35;100.00
49645;BME280;36494;50.730;-1.932;2023-08-21T03:38:28;101876.87;;;17.35;100.00
49645;BME280;36494;50.730;-1.932;2023-08-21T03:40:53;101876.30;;;17.37;100.00
49645;BME280;36494;50.730;-1.932;2023-08-21T03:43:18;101877.67;;;17.37;100.00
49645;BME280;36494;50.730;-1.932;2023-08-21T03:45:44;101877.12;;;17.38;100.00
49645;BME280;36494;50.730;-1.932;2023-08-21T03:48:09;101870.63;;;17.39;100.00
49645;BME280;36494;50.730;-1.932;2023-08-21T03:50:35;101869.18;;;17.37;100.00
49645;BME280;36494;50.730;-1.932;2023-08-21T03:53:01;101869.25;;;17.37;100.00
49645;BME280;36494;50.730;-1.932;2023-08-21T03:55:26;101865.22;;;17.37;100.00
49645;BME280;36494;50.730;-1.932;2023-08-21T03:57:51;101865.12;;;17.39;100.00
49645;BME280;36494;50.730;-1.932;2023-08-21T04:00:16;101864.75;;;17.38;100.00
49645;BME280;36494;50.730;-1.932;2023-08-21T04:02:42;101866.34;;;17.39;100.00
49645;BME280;36494;50.730;-1.932;2023-08-21T04:05:08;101864.77;;;17.38;100.00
49645;BME280;36494;50.730;-1.932;2023-08-21T04:07:33;101863.24;;;17.36;100.00
49645;BME280;36494;50.730;-1.932;2023-08-21T04:09:58;101865.10;;;17.36;100.00
49645;BME280;36494;50.730;-1.932;2023-08-21T04:12:23;101867.28;;;17.37;100.00
49645;BME280;36494;50.730;-1.932;2023-08-21T04:14:49;101863.32;;;17.37;100.00
49645;BME280;36494;50.730;-1.932;2023-08-21T04:17:14;101861.05;;;17.37;100.00
49645;BME280;36494;50.730;-1.932;2023-08-21T04:19:39;101861.29;;;17.34;100.00
49645;BME280;36494;50.730;-1.932;2023-08-21T04:22:05;101861.84;;;17.36;100.00
49645;BME280;36494;50.730;-1.932;2023-08-21T04:24:30;101862.64;;;17.36;100.00
49645;BME280;36494;50.730;-1.932;2023-08-21T04:26:55;101864.98;;;17.38;100.00
49645;BME280;36494;50.730;-1.932;2023-08-21T04:29:20;101869.67;;;17.38;100.00
49645;BME280;36494;50.730;-1.932;2023-08-21T04:31:46;101872.89;;;17.38;100.00
49645;BME280;36494;50.730;-1.932;2023-08-21T04:34:11;101873.85;;;17.31;100.00
49645;BME280;36494;50.730;-1.932;2023-08-21T04:36:36;101877.76;;;17.24;100.00
49645;BME280;36494;50.730;-1.932;2023-08-21T04:39:01;101880.72;;;17.18;100.00
49645;BME280;36494;50.730;-1.932;2023-08-21T04:41:27;101882.02;;;17.22;100.00
49645;BME280;36494;50.730;-1.932;2023-08-21T04:43:52;101880.89;;;17.24;100.00
49645;BME280;36494;50.730;-1.932;2023-08-21T04:46:18;101879.09;;;17.23;100.00
49645;BME280;36494;50.730;-1.932;2023-08-21T04:48:43;101880.76;;;17.20;100.00
49645;BME280;36494;50.730;-1.932;2023-08-21T04:51:08;101878.61;;;17.16;100.00
49645;BME280;36494;50.730;-1.932;2023-08-21T04:53:33;101879.97;;;17.16;100.00
49645;BME280;36494;50.730;-1.932;2023-08-21T04:55:59;101885.83;;;17.08;100.00
49645;BME280;36494;50.730;-1.932;2023-08-21T04:58:24;101887.52;;;17.14;100.00
49645;BME280;36494;50.730;-1.932;2023-08-21T05:00:49;101893.70;;;17.15;100.00
49645;BME280;36494;50.730;-1.932;2023-08-21T05:03:14;101895.90;;;17.14;100.00
49645;BME280;36494;50.730;-1.932;2023-08-21T05:05:40;101900.58;;;17.11;100.00
49645;BME280;36494;50.730;-1.932;2023-08-21T05:08:05;101897.08;;;17.15;100.00
49645;BME280;36494;50.730;-1.932;2023-08-21T05:10:31;101898.16;;;17.15;100.00
49645;BME280;36494;50.730;-1.932;2023-08-21T05:12:57;101901.16;;;17.13;100.00
49645;BME280;36494;50.730;-1.932;2023-08-21T05:15:21;101898.73;;;17.16;100.00
49645;BME280;36494;50.730;-1.932;2023-08-21T05:17:47;101896.20;;;17.15;100.00
49645;BME280;36494;50.730;-1.932;2023-08-21T05:20:12;101892.78;;;17.15;100.00
49645;BME280;36494;50.730;-1.932;2023-08-21T05:22:37;101892.77;;;17.19;100.00
49645;BME280;36494;50.730;-1.932;2023-08-21T05:25:02;101893.40;;;17.20;100.00
49645;BME280;36494;50.730;-1.932;2023-08-21T05:27:27;101896.16;;;17.20;100.00
49645;BME280;36494;50.730;-1.932;2023-08-21T05:29:53;101903.23;;;17.22;100.00
49645;BME280;36494;50.730;-1.932;2023-08-21T05:32:18;101902.67;;;17.23;100.00
49645;BME280;36494;50.730;-1.932;2023-08-21T05:34:43;101907.21;;;17.19;100.00
49645;BME280;36494;50.730;-1.932;2023-08-21T05:37:09;101909.60;;;17.22;100.00
49645;BME280;36494;50.730;-1.932;2023-08-21T05:39:34;101912.31;;;17.24;100.00
49645;BME280;36494;50.730;-1.932;2023-08-21T05:42:00;101913.04;;;17.22;100.00
49645;BME280;36494;50.730;-1.932;2023-08-21T05:44:25;101911.84;;;17.25;100.00
49645;BME280;36494;50.730;-1.932;2023-08-21T05:46:50;101914.18;;;17.27;100.00
49645;BME280;36494;50.730;-1.932;2023-08-21T05:49:16;101917.27;;;17.29;100.00
49645;BME280;36494;50.730;-1.932;2023-08-21T05:51:41;101924.34;;;17.26;100.00
49645;BME280;36494;50.730;-1.932;2023-08-21T05:54:07;101921.38;;;17.25;100.00
49645;BME280;36494;50.730;-1.932;2023-08-21T05:56:32;101920.16;;;17.27;100.00
49645;BME280;36494;50.730;-1.932;2023-08-21T05:58:57;101922.62;;;17.30;100.00
49645;BME280;36494;50.730;-1.932;2023-08-21T06:01:22;101929.39;;;17.31;100.00
49645;BME280;36494;50.730;-1.932;2023-08-21T06:03:47;101928.27;;;17.30;100.00
49645;BME280;36494;50.730;-1.932;2023-08-21T06:06:13;101921.63;;;17.32;100.00
49645;BME280;36494;50.730;-1.932;2023-08-21T06:08:38;101918.19;;;17.33;100.00
49645;BME280;36494;50.730;-1.932;2023-08-21T06:11:03;101912.13;;;17.33;100.00
49645;BME280;36494;50.730;-1.932;2023-08-21T06:13:28;101915.36;;;17.35;100.00
49645;BME280;36494;50.730;-1.932;2023-08-21T06:15:54;101913.40;;;17.35;100.00
49645;BME280;36494;50.730;-1.932;2023-08-21T06:18:19;101913.61;;;17.34;100.00
49645;BME280;36494;50.730;-1.932;2023-08-21T06:20:44;101914.39;;;17.36;100.00
49645;BME280;36494;50.730;-1.932;2023-08-21T06:23:10;101913.21;;;17.39;100.00
49645;BME280;36494;50.730;-1.932;2023-08-21T06:25:35;101915.18;;;17.41;100.00
49645;BME280;36494;50.730;-1.932;2023-08-21T06:28:00;101917.06;;;17.42;100.00
49645;BME280;36494;50.730;-1.932;2023-08-21T06:30:26;101917.63;;;17.44;100.00
49645;BME280;36494;50.730;-1.932;2023-08-21T06:32:51;101912.54;;;17.45;100.00
49645;BME280;36494;50.730;-1.932;2023-08-21T06:35:17;101913.76;;;17.42;100.00
49645;BME280;36494;50.730;-1.932;2023-08-21T06:37:42;101916.74;;;17.43;100.00
49645;BME280;36494;50.730;-1.932;2023-08-21T06:40:08;101921.54;;;17.43;100.00
49645;BME280;36494;50.730;-1.932;2023-08-21T06:42:32;101926.81;;;17.38;100.00
49645;BME280;36494;50.730;-1.932;2023-08-21T06:44:58;101937.97;;;17.39;100.00
49645;BME280;36494;50.730;-1.932;2023-08-21T06:47:23;101937.36;;;17.36;100.00
49645;BME280;36494;50.730;-1.932;2023-08-21T06:49:49;101933.36;;;17.33;100.00
49645;BME280;36494;50.730;-1.932;2023-08-21T06:52:14;101933.82;;;17.31;100.00
49645;BME280;36494;50.730;-1.932;2023-08-21T06:54:40;101932.34;;;17.32;100.00
49645;BME280;36494;50.730;-1.932;2023-08-21T06:57:05;101932.51;;;17.35;100.00
49645;BME280;36494;50.730;-1.932;2023-08-21T06:59:31;101931.16;;;17.29;100.00
49645;BME280;36494;50.730;-1.932;2023-08-21T07:01:56;101930.51;;;17.20;100.00
49645;BME280;36494;50.730;-1.932;2023-08-21T07:04:21;101932.06;;;17.17;100.00
49645;BME280;36494;50.730;-1.932;2023-08-21T07:06:47;101930.79;;;17.28;100.00
49645;BME280;36494;50.730;-1.932;2023-08-21T07:09:12;101935.04;;;17.30;100.00
49645;BME280;36494;50.730;-1.932;2023-08-21T07:11:37;101937.51;;;17.31;100.00
49645;BME280;36494;50.730;-1.932;2023-08-21T07:14:03;101938.23;;;17.38;100.00
49645;BME280;36494;50.730;-1.932;2023-08-21T07:16:28;101938.34;;;17.44;100.00
49645;BME280;36494;50.730;-1.932;2023-08-21T07:18:53;101935.86;;;17.42;100.00
49645;BME280;36494;50.730;-1.932;2023-08-21T07:21:19;101928.08;;;17.52;100.00
49645;BME280;36494;50.730;-1.932;2023-08-21T07:23:44;101921.58;;;17.53;100.00
49645;BME280;36494;50.730;-1.932;2023-08-21T07:26:09;101924.68;;;17.62;100.00
49645;BME280;36494;50.730;-1.932;2023-08-21T07:28:34;101932.73;;;17.54;100.00
49645;BME280;36494;50.730;-1.932;2023-08-21T07:31:00;101931.32;;;17.66;100.00
49645;BME280;36494;50.730;-1.932;2023-08-21T07:33:25;101927.19;;;17.54;100.00
49645;BME280;36494;50.730;-1.932;2023-08-21T07:35:56;101928.73;;;17.68;100.00
49645;BME280;36494;50.730;-1.932;2023-08-21T07:38:15;101929.33;;;17.72;100.00
49645;BME280;36494;50.730;-1.932;2023-08-21T07:40:41;101932.86;;;17.80;100.00
49645;BME280;36494;50.730;-1.932;2023-08-21T07:43:06;101936.76;;;17.82;100.00
49645;BME280;36494;50.730;-1.932;2023-08-21T07:45:32;101937.93;;;17.81;100.00
49645;BME280;36494;50.730;-1.932;2023-08-21T07:47:57;101936.36;;;17.62;100.00
49645;BME280;36494;50.730;-1.932;2023-08-21T07:50:23;101939.31;;;17.74;100.00
49645;BME280;36494;50.730;-1.932;2023-08-21T07:52:48;101940.05;;;17.74;100.00
49645;BME280;36494;50.730;-1.932;2023-08-21T07:55:13;101935.30;;;17.73;100.00
49645;BME280;36494;50.730;-1.932;2023-08-21T07:57:38;101941.23;;;17.79;100.00
49645;BME280;36494;50.730;-1.932;2023-08-21T08:00:04;101942.83;;;17.85;100.00
49645;BME280;36494;50.730;-1.932;2023-08-21T08:02:29;101941.47;;;17.91;100.00
49645;BME280;36494;50.730;-1.932;2023-08-21T08:04:55;101939.95;;;17.92;100.00
49645;BME280;36494;50.730;-1.932;2023-08-21T08:07:20;101932.88;;;17.99;100.00
49645;BME280;36494;50.730;-1.932;2023-08-21T08:09:45;101925.57;;;17.96;100.00
49645;BME280;36494;50.730;-1.932;2023-08-21T08:12:10;101930.86;;;17.95;100.00
49645;BME280;36494;50.730;-1.932;2023-08-21T08:14:36;101931.25;;;17.95;100.00
49645;BME280;36494;50.730;-1.932;2023-08-21T08:17:01;101932.84;;;18.00;100.00
49645;BME280;36494;50.730;-1.932;2023-08-21T08:19:27;101928.51;;;18.03;100.00
49645;BME280;36494;50.730;-1.932;2023-08-21T08:21:51;101927.25;;;17.93;100.00
49645;BME280;36494;50.730;-1.932;2023-08-21T08:24:17;101925.76;;;17.97;100.00
49645;BME280;36494;50.730;-1.932;2023-08-21T08:26:42;101931.44;;;18.01;100.00
49645;BME280;36494;50.730;-1.932;2023-08-21T08:29:07;101931.94;;;18.09;100.00
49645;BME280;36494;50.730;-1.932;2023-08-21T08:31:32;101933.57;;;18.08;100.00
49645;BME280;36494;50.730;-1.932;2023-08-21T08:33:58;101932.58;;;18.11;100.00
49645;BME280;36494;50.730;-1.932;2023-08-21T08:36:23;101933.78;;;18.26;100.00
49645;BME280;36494;50.730;-1.932;2023-08-21T08:38:49;101936.47;;;18.24;100.00
49645;BME280;36494;50.730;-1.932;2023-08-21T08:41:21;101936.79;;;18.30;100.00
49645;BME280;36494;50.730;-1.932;2023-08-21T08:43:40;101934.10;;;18.32;100.00
49645;BME280;36494;50.730;-1.932;2023-08-21T08:46:05;101931.63;;;18.28;100.00
49645;BME280;36494;50.730;-1.932;2023-08-21T08:48:29;101933.91;;;18.29;100.00
49645;BME280;36494;50.730;-1.932;2023-08-21T08:50:55;101937.28;;;18.38;100.00
49645;BME280;36494;50.730;-1.932;2023-08-21T08:53:20;101940.87;;;18.44;100.00
49645;BME280;36494;50.730;-1.932;2023-08-21T08:55:45;101939.67;;;18.46;100.00
49645;BME280;36494;50.730;-1.932;2023-08-21T08:58:11;101942.48;;;18.36;100.00
49645;BME280;36494;50.730;-1.932;2023-08-21T09:00:36;101944.21;;;18.41;100.00
49645;BME280;36494;50.730;-1.932;2023-08-21T09:03:01;101947.94;;;18.49;100.00
49645;BME280;36494;50.730;-1.932;2023-08-21T09:05:26;101950.07;;;18.52;100.00
49645;BME280;36494;50.730;-1.932;2023-08-21T09:08:02;101950.72;;;18.64;100.00
49645;BME280;36494;50.730;-1.932;2023-08-21T09:10:17;101949.87;;;18.61;100.00
49645;BME280;36494;50.730;-1.932;2023-08-21T09:12:45;101953.10;;;18.65;100.00
49645;BME280;36494;50.730;-1.932;2023-08-21T09:15:08;101951.71;;;18.53;100.00
49645;BME280;36494;50.730;-1.932;2023-08-21T09:17:33;101955.78;;;18.53;100.00
49645;BME280;36494;50.730;-1.932;2023-08-21T09:20:03;101955.07;;;18.55;100.00
49645;BME280;36494;50.730;-1.932;2023-08-21T09:22:23;101957.78;;;18.64;100.00
49645;BME280;36494;50.730;-1.932;2023-08-21T09:24:59;101956.74;;;18.54;100.00
49645;BME280;36494;50.730;-1.932;2023-08-21T09:27:16;101961.19;;;18.62;100.00
49645;BME280;36494;50.730;-1.932;2023-08-21T09:29:39;101958.45;;;18.76;100.00
49645;BME280;36494;50.730;-1.932;2023-08-21T09:32:04;101958.17;;;18.80;100.00
49645;BME280;36494;50.730;-1.932;2023-08-21T09:34:34;101957.31;;;18.74;100.00
49645;BME280;36494;50.730;-1.932;2023-08-21T09:36:55;101953.44;;;18.65;100.00
49645;BME280;36494;50.730;-1.932;2023-08-21T09:39:20;101951.32;;;18.71;100.00
49645;BME280;36494;50.730;-1.932;2023-08-21T09:41:54;101952.10;;;18.78;100.00
49645;BME280;36494;50.730;-1.932;2023-08-21T09:44:10;101954.59;;;18.74;100.00
49645;BME280;36494;50.730;-1.932;2023-08-21T09:46:36;101950.84;;;18.82;100.00
49645;BME280;36494;50.730;-1.932;2023-08-21T09:49:01;101955.11;;;18.75;100.00
49645;BME280;36494;50.730;-1.932;2023-08-21T09:51:26;101947.29;;;18.84;100.00
49645;BME280;36494;50.730;-1.932;2023-08-21T09:53:54;101944.80;;;18.86;100.00
49645;BME280;36494;50.730;-1.932;2023-08-21T09:56:18;101947.45;;;18.88;100.00
49645;BME280;36494;50.730;-1.932;2023-08-21T09:58:43;101946.42;;;18.96;100.00
49645;BME280;36494;50.730;-1.932;2023-08-21T10:01:08;101948.05;;;18.96;100.00
49645;BME280;36494;50.730;-1.932;2023-08-21T10:03:33;101943.47;;;18.92;100.00
49645;BME280;36494;50.730;-1.932;2023-08-21T10:05:58;101940.75;;;19.03;100.00
49645;BME280;36494;50.730;-1.932;2023-08-21T10:08:25;101938.40;;;18.92;100.00
49645;BME280;36494;50.730;-1.932;2023-08-21T10:10:48;101938.17;;;19.04;100.00
49645;BME280;36494;50.730;-1.932;2023-08-21T10:13:14;101942.73;;;19.03;100.00
49645;BME280;36494;50.730;-1.932;2023-08-21T10:15:40;101942.90;;;18.69;100.00
49645;BME280;36494;50.730;-1.932;2023-08-21T10:18:17;101941.13;;;18.65;100.00
49645;BME280;36494;50.730;-1.932;2023-08-21T10:20:30;101939.80;;;18.70;100.00
49645;BME280;36494;50.730;-1.932;2023-08-21T10:23:00;101939.60;;;18.80;100.00
49645;BME280;36494;50.730;-1.932;2023-08-21T10:25:21;101937.72;;;18.80;100.00
49645;BME280;36494;50.730;-1.932;2023-08-21T10:27:46;101933.24;;;18.78;100.00
49645;BME280;36494;50.730;-1.932;2023-08-21T10:30:13;101927.41;;;18.99;100.00
49645;BME280;36494;50.730;-1.932;2023-08-21T10:32:44;101929.81;;;19.07;100.00
49645;BME280;36494;50.730;-1.932;2023-08-21T10:35:01;101928.49;;;18.97;100.00
49645;BME280;36494;50.730;-1.932;2023-08-21T10:37:26;101922.53;;;19.05;100.00
49645;BME280;36494;50.730;-1.932;2023-08-21T10:39:56;101925.34;;;18.84;100.00
49645;BME280;36494;50.730;-1.932;2023-08-21T10:42:16;101923.12;;;18.71;100.00
49645;BME280;36494;50.730;-1.932;2023-08-21T10:44:50;101924.89;;;18.99;100.00
49645;BME280;36494;50.730;-1.932;2023-08-21T10:47:13;101938.69;;;18.67;100.00
49645;BME280;36494;50.730;-1.932;2023-08-21T10:49:33;101935.75;;;18.71;100.00
49645;BME280;36494;50.730;-1.932;2023-08-21T10:51:58;101936.64;;;18.71;100.00
49645;BME280;36494;50.730;-1.932;2023-08-21T10:54:23;101934.80;;;18.66;100.00
49645;BME280;36494;50.730;-1.932;2023-08-21T10:56:49;101927.69;;;18.82;100.00
49645;BME280;36494;50.730;-1.932;2023-08-21T10:59:14;101919.87;;;18.92;100.00
49645;BME280;36494;50.730;-1.932;2023-08-21T11:01:43;101914.27;;;19.05;100.00
49645;BME280;36494;50.730;-1.932;2023-08-21T11:04:04;101907.36;;;19.07;100.00
49645;BME280;36494;50.730;-1.932;2023-08-21T11:06:29;101905.40;;;19.28;100.00
49645;BME280;36494;50.730;-1.932;2023-08-21T11:08:55;101904.19;;;19.23;100.00
49645;BME280;36494;50.730;-1.932;2023-08-21T11:11:20;101897.20;;;19.33;100.00
49645;BME280;36494;50.730;-1.932;2023-08-21T11:13:52;101900.01;;;19.42;100.00
49645;BME280;36494;50.730;-1.932;2023-08-21T11:16:11;101900.53;;;19.47;100.00
49645;BME280;36494;50.730;-1.932;2023-08-21T11:18:37;101899.14;;;19.68;100.00
49645;BME280;36494;50.730;-1.932;2023-08-21T11:21:04;101893.20;;;19.70;100.00
49645;BME280;36494;50.730;-1.932;2023-08-21T11:23:32;101894.62;;;19.73;100.00
49645;BME280;36494;50.730;-1.932;2023-08-21T11:25:52;101896.06;;;19.86;100.00
49645;BME280;36494;50.730;-1.932;2023-08-21T11:28:17;101896.26;;;19.92;100.00
49645;BME280;36494;50.730;-1.932;2023-08-21T11:30:43;101893.84;;;19.92;100.00
49645;BME280;36494;50.730;-1.932;2023-08-21T11:33:08;101894.65;;;19.84;100.00
49645;BME280;36494;50.730;-1.932;2023-08-21T11:35:32;101894.75;;;19.84;100.00
49645;BME280;36494;50.730;-1.932;2023-08-21T11:37:58;101896.52;;;19.72;100.00
49645;BME280;36494;50.730;-1.932;2023-08-21T11:40:24;101896.07;;;19.86;100.00
49645;BME280;36494;50.730;-1.932;2023-08-21T11:42:51;101895.05;;;19.78;100.00
49645;BME280;36494;50.730;-1.932;2023-08-21T11:45:14;101899.17;;;19.81;100.00
49645;BME280;36494;50.730;-1.932;2023-08-21T11:47:39;101901.11;;;19.81;100.00
49645;BME280;36494;50.730;-1.932;2023-08-21T11:50:06;101898.85;;;19.70;100.00
49645;BME280;36494;50.730;-1.932;2023-08-21T11:52:30;101897.47;;;19.76;100.00
49645;BME280;36494;50.730;-1.932;2023-08-21T11:54:55;101896.53;;;19.85;100.00
49645;BME280;36494;50.730;-1.932;2023-08-21T11:57:22;101890.27;;;19.70;100.00
49645;BME280;36494;50.730;-1.932;2023-08-21T11:59:49;101887.62;;;19.82;100.00
49645;BME280;36494;50.730;-1.932;2023-08-21T12:02:14;101887.50;;;19.85;100.00
49645;BME280;36494;50.730;-1.932;2023-08-21T12:04:36;101888.57;;;20.08;100.00
49645;BME280;36494;50.730;-1.932;2023-08-21T12:07:01;101886.09;;;20.04;100.00
49645;BME280;36494;50.730;-1.932;2023-08-21T12:09:26;101891.02;;;20.12;100.00
49645;BME280;36494;50.730;-1.932;2023-08-21T12:11:51;101899.75;;;20.10;100.00
49645;BME280;36494;50.730;-1.932;2023-08-21T12:14:16;101902.85;;;19.91;100.00
49645;BME280;36494;50.730;-1.932;2023-08-21T12:16:42;101902.16;;;19.96;100.00
49645;BME280;36494;50.730;-1.932;2023-08-21T12:19:07;101899.67;;;19.98;100.00